sensor_id;sensor_type;location;lat;lon;timestamp;temperature;humidity
15103;DHT22;7652;53.584;9.998;2022-11-20T00:02:29;3.90;99.90
15103;DHT22;7652;53.584;9.998;2022-11-20T00:05:32;3.90;99.90
15103;DHT22;7652;53.584;9.998;2022-11-20T00:08:35;3.90;99.90
15103;DHT22;7652;53.584;9.998;2022-11-20T00:11:38;3.80;99.90
15103;DHT22;7652;53.584;9.998;2022-11-20T00:14:41;3.80;99.90
15103;DHT22;7652;53.584;9.998;2022-11-20T00:17:46;3.90;99.90
15103;DHT22;7652;53.584;9.998;2022-11-20T00:20:49;3.80;99.90
15103;DHT22;7652;53.584;9.998;2022-11-20T00:23:54;3.80;99.90
15103;DHT22;7652;53.584;9.998;2022-11-20T00:26:57;3.80;99.90
15103;DHT22;7652;53.584;9.998;2022-11-20T00:30:00;3.80;99.90
15103;DHT22;7652;53.584;9.998;2022-11-20T00:33:05;3.70;99.90
15103;DHT22;7652;53.584;9.998;2022-11-20T00:36:09;3.70;99.90
15103;DHT22;7652;53.584;9.998;2022-11-20T00:39:13;3.70;99.90
15103;DHT22;7652;53.584;9.998;2022-11-20T00:42:16;3.80;99.90
15103;DHT22;7652;53.584;9.998;2022-11-20T00:45:19;3.80;99.90
15103;DHT22;7652;53.584;9.998;2022-11-20T00:48:23;3.90;99.90
15103;DHT22;7652;53.584;9.998;2022-11-20T00:51:26;3.80;99.90
15103;DHT22;7652;53.584;9.998;2022-11-20T00:54:29;3.90;99.90
15103;DHT22;7652;53.584;9.998;2022-11-20T00:57:32;3.90;99.90
15103;DHT22;7652;53.584;9.998;2022-11-20T01:00:35;3.90;99.90
15103;DHT22;7652;53.584;9.998;2022-11-20T01:03:42;4.00;99.90
15103;DHT22;7652;53.584;9.998;2022-11-20T01:06:45;3.90;99.90
15103;DHT22;7652;53.584;9.998;2022-11-20T01:09:48;3.80;99.90
15103;DHT22;7652;53.584;9.998;2022-11-20T01:12:51;3.80;99.90
15103;DHT22;7652;53.584;9.998;2022-11-20T01:16:16;3.80;99.90
15103;DHT22;7652;53.584;9.998;2022-11-20T01:19:22;3.80;99.90
15103;DHT22;7652;53.584;9.998;2022-11-20T01:22:26;3.80;99.90
15103;DHT22;7652;53.584;9.998;2022-11-20T01:25:29;3.80;99.90
15103;DHT22;7652;53.584;9.998;2022-11-20T01:28:32;3.80;99.90
15103;DHT22;7652;53.584;9.998;2022-11-20T01:31:36;3.70;99.90
15103;DHT22;7652;53.584;9.998;2022-11-20T01:34:41;3.60;99.90
15103;DHT22;7652;53.584;9.998;2022-11-20T01:37:44;3.50;99.90
15103;DHT22;7652;53.584;9.998;2022-11-20T01:40:54;3.60;99.90
15103;DHT22;7652;53.584;9.998;2022-11-20T01:43:57;3.60;99.90
15103;DHT22;7652;53.584;9.998;2022-11-20T01:47:01;3.60;99.90
15103;DHT22;7652;53.584;9.998;2022-11-20T01:50:13;3.60;99.90
15103;DHT22;7652;53.584;9.998;2022-11-20T01:53:19;3.60;99.90
15103;DHT22;7652;53.584;9.998;2022-11-20T01:56:25;3.60;99.90
15103;DHT22;7652;53.584;9.998;2022-11-20T01:59:29;3.60;99.90
15103;DHT22;7652;53.584;9.998;2022-11-20T02:02:33;3.60;99.90
15103;DHT22;7652;53.584;9.998;2022-11-20T02:05:41;3.60;99.90
15103;DHT22;7652;53.584;9.998;2022-11-20T02:08:47;3.60;99.90
15103;DHT22;7652;53.584;9.998;2022-11-20T02:11:50;3.50;99.90
15103;DHT22;7652;53.584;9.998;2022-11-20T02:14:53;3.50;99.90
15103;DHT22;7652;53.584;9.998;2022-11-20T02:17:55;3.50;99.90
15103;DHT22;7652;53.584;9.998;2022-11-20T02:21:06;3.50;99.90
15103;DHT22;7652;53.584;9.998;2022-11-20T02:24:12;3.50;99.90
15103;DHT22;7652;53.584;9.998;2022-11-20T02:27:17;3.40;99.90
15103;DHT22;7652;53.584;9.998;2022-11-20T02:30:20;3.40;99.90
15103;DHT22;7652;53.584;9.998;2022-11-20T02:33:23;3.40;99.90
15103;DHT22;7652;53.584;9.998;2022-11-20T02:36:27;3.40;99.90
15103;DHT22;7652;53.584;9.998;2022-11-20T02:39:32;3.50;99.90
15103;DHT22;7652;53.584;9.998;2022-11-20T02:42:35;3.50;99.90
15103;DHT22;7652;53.584;9.998;2022-11-20T02:45:38;3.50;99.90
15103;DHT22;7652;53.584;9.998;2022-11-20T02:48:41;3.50;99.90
15103;DHT22;7652;53.584;9.998;2022-11-20T02:51:44;3.60;99.90
15103;DHT22;7652;53.584;9.998;2022-11-20T02:54:48;3.50;99.90
15103;DHT22;7652;53.584;9.998;2022-11-20T02:57:51;3.50;99.90
15103;DHT22;7652;53.584;9.998;2022-11-20T03:00:54;3.60;99.90
15103;DHT22;7652;53.584;9.998;2022-11-20T03:03:57;3.50;99.90
15103;DHT22;7652;53.584;9.998;2022-11-20T03:07:00;3.60;99.90
15103;DHT22;7652;53.584;9.998;2022-11-20T03:10:06;3.70;99.90
15103;DHT22;7652;53.584;9.998;2022-11-20T03:13:09;3.50;99.90
15103;DHT22;7652;53.584;9.998;2022-11-20T03:16:14;3.50;99.90
15103;DHT22;7652;53.584;9.998;2022-11-20T03:19:17;3.50;99.90
15103;DHT22;7652;53.584;9.998;2022-11-20T03:22:21;3.50;99.90
15103;DHT22;7652;53.584;9.998;2022-11-20T03:25:25;3.50;99.90
15103;DHT22;7652;53.584;9.998;2022-11-20T03:28:28;3.50;99.90
15103;DHT22;7652;53.584;9.998;2022-11-20T03:31:33;3.50;99.90
15103;DHT22;7652;53.584;9.998;2022-11-20T03:34:36;3.50;99.90
15103;DHT22;7652;53.584;9.998;2022-11-20T03:37:39;3.50;99.90
15103;DHT22;7652;53.584;9.998;2022-11-20T03:40:44;3.50;99.90
15103;DHT22;7652;53.584;9.998;2022-11-20T03:43:48;3.50;99.90
15103;DHT22;7652;53.584;9.998;2022-11-20T03:46:51;3.60;99.90
15103;DHT22;7652;53.584;9.998;2022-11-20T03:49:54;3.50;99.90
15103;DHT22;7652;53.584;9.998;2022-11-20T03:52:57;3.50;99.90
15103;DHT22;7652;53.584;9.998;2022-11-20T03:56:02;3.50;99.90
15103;DHT22;7652;53.584;9.998;2022-11-20T03:59:06;3.40;99.90
15103;DHT22;7652;53.584;9.998;2022-11-20T04:02:09;3.50;99.90
15103;DHT22;7652;53.584;9.998;2022-11-20T04:05:12;3.60;99.90
15103;DHT22;7652;53.584;9.998;2022-11-20T04:08:15;3.60;99.90
15103;DHT22;7652;53.584;9.998;2022-11-20T04:11:21;3.60;99.90
15103;DHT22;7652;53.584;9.998;2022-11-20T04:14:24;3.60;99.90
15103;DHT22;7652;53.584;9.998;2022-11-20T04:17:27;3.60;99.90
15103;DHT22;7652;53.584;9.998;2022-11-20T04:20:30;3.60;99.90
15103;DHT22;7652;53.584;9.998;2022-11-20T04:23:33;3.60;99.90
15103;DHT22;7652;53.584;9.998;2022-11-20T04:26:38;3.50;99.90
15103;DHT22;7652;53.584;9.998;2022-11-20T04:29:41;3.50;99.90
15103;DHT22;7652;53.584;9.998;2022-11-20T04:32:44;3.50;99.90
15103;DHT22;7652;53.584;9.998;2022-11-20T04:35:47;3.50;99.90
15103;DHT22;7652;53.584;9.998;2022-11-20T04:38:51;3.50;99.90
15103;DHT22;7652;53.584;9.998;2022-11-20T04:41:59;3.40;99.90
15103;DHT22;7652;53.584;9.998;2022-11-20T04:45:19;3.50;99.90
15103;DHT22;7652;53.584;9.998;2022-11-20T04:48:23;3.40;99.90
15103;DHT22;7652;53.584;9.998;2022-11-20T04:51:27;3.50;99.90
15103;DHT22;7652;53.584;9.998;2022-11-20T04:54:30;3.50;99.90
15103;DHT22;7652;53.584;9.998;2022-11-20T04:57:34;3.50;99.90
15103;DHT22;7652;53.584;9.998;2022-11-20T05:00:37;3.40;99.90
15103;DHT22;7652;53.584;9.998;2022-11-20T05:03:41;3.40;99.90
15103;DHT22;7652;53.584;9.998;2022-11-20T05:06:44;3.40;99.90
15103;DHT22;7652;53.584;9.998;2022-11-20T05:09:47;3.50;99.90
15103;DHT22;7652;53.584;9.998;2022-11-20T05:12:52;3.50;99.90
15103;DHT22;7652;53.584;9.998;2022-11-20T05:15:55;3.50;99.90
15103;DHT22;7652;53.584;9.998;2022-11-20T05:18:58;3.50;99.90
15103;DHT22;7652;53.584;9.998;2022-11-20T05:22:01;3.50;99.90
15103;DHT22;7652;53.584;9.998;2022-11-20T05:25:05;3.50;99.90
15103;DHT22;7652;53.584;9.998;2022-11-20T05:28:09;3.50;99.90
15103;DHT22;7652;53.584;9.998;2022-11-20T05:31:14;3.50;99.90
15103;DHT22;7652;53.584;9.998;2022-11-20T05:34:22;3.50;99.90
15103;DHT22;7652;53.584;9.998;2022-11-20T05:37:25;3.50;99.90
15103;DHT22;7652;53.584;9.998;2022-11-20T05:40:28;3.50;99.90
15103;DHT22;7652;53.584;9.998;2022-11-20T05:43:33;3.40;99.90
15103;DHT22;7652;53.584;9.998;2022-11-20T05:46:37;3.40;99.90
15103;DHT22;7652;53.584;9.998;2022-11-20T05:49:40;3.40;99.90
15103;DHT22;7652;53.584;9.998;2022-11-20T05:52:43;3.40;99.90
15103;DHT22;7652;53.584;9.998;2022-11-20T05:55:46;3.30;99.90
15103;DHT22;7652;53.584;9.998;2022-11-20T05:58:50;3.30;99.90
15103;DHT22;7652;53.584;9.998;2022-11-20T06:01:53;3.30;99.90
15103;DHT22;7652;53.584;9.998;2022-11-20T06:04:56;3.30;99.90
15103;DHT22;7652;53.584;9.998;2022-11-20T06:08:00;3.40;99.90
15103;DHT22;7652;53.584;9.998;2022-11-20T06:11:04;3.40;99.90
15103;DHT22;7652;53.584;9.998;2022-11-20T06:14:09;3.30;99.90
15103;DHT22;7652;53.584;9.998;2022-11-20T06:17:12;3.30;99.90
15103;DHT22;7652;53.584;9.998;2022-11-20T06:20:15;3.30;99.90
15103;DHT22;7652;53.584;9.998;2022-11-20T06:23:18;3.30;99.90
15103;DHT22;7652;53.584;9.998;2022-11-20T06:26:22;3.40;99.90
15103;DHT22;7652;53.584;9.998;2022-11-20T06:29:26;3.30;99.90
15103;DHT22;7652;53.584;9.998;2022-11-20T06:32:34;3.30;99.90
15103;DHT22;7652;53.584;9.998;2022-11-20T06:35:37;3.30;99.90
15103;DHT22;7652;53.584;9.998;2022-11-20T06:38:41;3.30;99.90
15103;DHT22;7652;53.584;9.998;2022-11-20T06:41:44;3.20;99.90
15103;DHT22;7652;53.584;9.998;2022-11-20T06:44:48;3.30;99.90
15103;DHT22;7652;53.584;9.998;2022-11-20T06:47:51;3.30;99.90
15103;DHT22;7652;53.584;9.998;2022-11-20T06:50:54;3.30;99.90
15103;DHT22;7652;53.584;9.998;2022-11-20T06:53:57;3.30;99.90
15103;DHT22;7652;53.584;9.998;2022-11-20T06:57:00;3.30;99.90
15103;DHT22;7652;53.584;9.998;2022-11-20T07:00:06;3.30;99.90
15103;DHT22;7652;53.584;9.998;2022-11-20T07:03:10;3.30;99.90
15103;DHT22;7652;53.584;9.998;2022-11-20T07:06:13;3.20;99.90
15103;DHT22;7652;53.584;9.998;2022-11-20T07:09:16;3.20;99.90
15103;DHT22;7652;53.584;9.998;2022-11-20T07:12:19;3.10;99.90
15103;DHT22;7652;53.584;9.998;2022-11-20T07:15:24;3.10;99.90
15103;DHT22;7652;53.584;9.998;2022-11-20T07:18:28;3.10;99.90
15103;DHT22;7652;53.584;9.998;2022-11-20T07:21:31;3.10;99.90
15103;DHT22;7652;53.584;9.998;2022-11-20T07:24:34;3.20;99.90
15103;DHT22;7652;53.584;9.998;2022-11-20T07:27:37;3.20;99.90
15103;DHT22;7652;53.584;9.998;2022-11-20T07:30:41;3.20;99.90
15103;DHT22;7652;53.584;9.998;2022-11-20T07:33:44;3.20;99.90
15103;DHT22;7652;53.584;9.998;2022-11-20T07:36:47;3.20;99.90
15103;DHT22;7652;53.584;9.998;2022-11-20T07:39:50;3.30;99.90
15103;DHT22;7652;53.584;9.998;2022-11-20T07:42:54;3.30;99.90
15103;DHT22;7652;53.584;9.998;2022-11-20T07:45:59;3.30;99.90
15103;DHT22;7652;53.584;9.998;2022-11-20T07:49:02;3.30;99.90
15103;DHT22;7652;53.584;9.998;2022-11-20T07:52:05;3.30;99.90
15103;DHT22;7652;53.584;9.998;2022-11-20T07:55:09;3.40;99.90
15103;DHT22;7652;53.584;9.998;2022-11-20T07:58:12;3.40;99.90
15103;DHT22;7652;53.584;9.998;2022-11-20T08:01:17;3.40;99.90
15103;DHT22;7652;53.584;9.998;2022-11-20T08:04:20;3.40;99.90
15103;DHT22;7652;53.584;9.998;2022-11-20T08:07:25;3.50;99.90
15103;DHT22;7652;53.584;9.998;2022-11-20T08:10:28;3.50;99.90
15103;DHT22;7652;53.584;9.998;2022-11-20T08:13:31;3.50;99.90
15103;DHT22;7652;53.584;9.998;2022-11-20T08:16:53;3.60;99.90
15103;DHT22;7652;53.584;9.998;2022-11-20T08:19:56;3.60;99.90
15103;DHT22;7652;53.584;9.998;2022-11-20T08:22:59;3.60;99.90
15103;DHT22;7652;53.584;9.998;2022-11-20T08:26:03;3.70;99.90
15103;DHT22;7652;53.584;9.998;2022-11-20T08:29:06;3.60;99.90
15103;DHT22;7652;53.584;9.998;2022-11-20T08:32:10;3.60;99.90
15103;DHT22;7652;53.584;9.998;2022-11-20T08:35:13;3.70;99.90
15103;DHT22;7652;53.584;9.998;2022-11-20T08:38:16;3.70;99.90
15103;DHT22;7652;53.584;9.998;2022-11-20T08:41:20;3.70;99.90
15103;DHT22;7652;53.584;9.998;2022-11-20T08:44:27;3.80;99.90
15103;DHT22;7652;53.584;9.998;2022-11-20T08:47:31;3.80;99.90
15103;DHT22;7652;53.584;9.998;2022-11-20T08:50:34;3.80;99.90
15103;DHT22;7652;53.584;9.998;2022-11-20T08:53:37;3.90;99.90
15103;DHT22;7652;53.584;9.998;2022-11-20T08:56:40;3.90;99.90
15103;DHT22;7652;53.584;9.998;2022-11-20T08:59:43;4.00;99.90
15103;DHT22;7652;53.584;9.998;2022-11-20T09:03:07;4.00;99.90
15103;DHT22;7652;53.584;9.998;2022-11-20T09:06:10;4.10;99.90
15103;DHT22;7652;53.584;9.998;2022-11-20T09:09:13;4.20;99.90
15103;DHT22;7652;53.584;9.998;2022-11-20T09:12:16;4.20;99.90
15103;DHT22;7652;53.584;9.998;2022-11-20T09:15:19;4.00;99.90
15103;DHT22;7652;53.584;9.998;2022-11-20T09:18:24;4.00;99.90
15103;DHT22;7652;53.584;9.998;2022-11-20T09:21:27;3.90;99.90
15103;DHT22;7652;53.584;9.998;2022-11-20T09:24:30;3.70;99.90
15103;DHT22;7652;53.584;9.998;2022-11-20T09:27:33;3.70;99.90
15103;DHT22;7652;53.584;9.998;2022-11-20T09:30:37;3.70;99.90
15103;DHT22;7652;53.584;9.998;2022-11-20T09:33:41;3.70;99.90
15103;DHT22;7652;53.584;9.998;2022-11-20T09:36:44;3.70;99.90
15103;DHT22;7652;53.584;9.998;2022-11-20T09:39:47;3.80;99.90
15103;DHT22;7652;53.584;9.998;2022-11-20T09:42:55;3.90;99.90
15103;DHT22;7652;53.584;9.998;2022-11-20T09:46:07;3.90;99.90
15103;DHT22;7652;53.584;9.998;2022-11-20T09:49:23;3.90;99.90
15103;DHT22;7652;53.584;9.998;2022-11-20T09:52:40;4.00;99.90
15103;DHT22;7652;53.584;9.998;2022-11-20T09:55:47;3.90;99.90
15103;DHT22;7652;53.584;9.998;2022-11-20T09:58:53;4.00;99.90
15103;DHT22;7652;53.584;9.998;2022-11-20T10:01:58;3.90;99.90
15103;DHT22;7652;53.584;9.998;2022-11-20T10:05:06;4.00;99.90
15103;DHT22;7652;53.584;9.998;2022-11-20T10:08:16;4.10;99.90
15103;DHT22;7652;53.584;9.998;2022-11-20T10:11:26;4.20;99.90
15103;DHT22;7652;53.584;9.998;2022-11-20T10:14:39;4.40;99.90
15103;DHT22;7652;53.584;9.998;2022-11-20T10:18:15;4.40;99.90
15103;DHT22;7652;53.584;9.998;2022-11-20T10:21:32;4.50;99.90
15103;DHT22;7652;53.584;9.998;2022-11-20T10:24:51;4.80;99.90
15103;DHT22;7652;53.584;9.998;2022-11-20T10:28:04;4.90;99.90
15103;DHT22;7652;53.584;9.998;2022-11-20T10:31:14;4.90;99.90
15103;DHT22;7652;53.584;9.998;2022-11-20T10:34:22;4.80;99.90
15103;DHT22;7652;53.584;9.998;2022-11-20T10:37:29;4.70;99.90
15103;DHT22;7652;53.584;9.998;2022-11-20T10:40:37;4.60;99.90
15103;DHT22;7652;53.584;9.998;2022-11-20T10:43:41;4.40;99.90
15103;DHT22;7652;53.584;9.998;2022-11-20T10:46:45;4.40;99.90
15103;DHT22;7652;53.584;9.998;2022-11-20T10:49:50;4.40;99.90
15103;DHT22;7652;53.584;9.998;2022-11-20T10:53:02;4.50;99.90
15103;DHT22;7652;53.584;9.998;2022-11-20T10:56:17;4.50;99.90
15103;DHT22;7652;53.584;9.998;2022-11-20T10:59:38;4.60;99.90
15103;DHT22;7652;53.584;9.998;2022-11-20T11:02:47;4.70;99.90
15103;DHT22;7652;53.584;9.998;2022-11-20T11:05:53;4.70;99.90
15103;DHT22;7652;53.584;9.998;2022-11-20T11:09:01;4.90;99.90
15103;DHT22;7652;53.584;9.998;2022-11-20T11:12:07;4.80;99.90
15103;DHT22;7652;53.584;9.998;2022-11-20T11:15:13;4.80;99.90
15103;DHT22;7652;53.584;9.998;2022-11-20T11:18:24;4.70;99.90
15103;DHT22;7652;53.584;9.998;2022-11-20T11:21:27;4.70;99.90
15103;DHT22;7652;53.584;9.998;2022-11-20T11:24:32;4.60;99.90
15103;DHT22;7652;53.584;9.998;2022-11-20T11:27:45;4.60;99.90
15103;DHT22;7652;53.584;9.998;2022-11-20T11:30:49;4.50;99.90
15103;DHT22;7652;53.584;9.998;2022-11-20T11:33:52;4.60;99.90
15103;DHT22;7652;53.584;9.998;2022-11-20T11:36:57;4.50;99.90
15103;DHT22;7652;53.584;9.998;2022-11-20T11:40:02;4.50;99.90
15103;DHT22;7652;53.584;9.998;2022-11-20T11:43:28;4.50;99.90
15103;DHT22;7652;53.584;9.998;2022-11-20T11:46:53;4.40;99.90
15103;DHT22;7652;53.584;9.998;2022-11-20T11:50:15;4.60;99.90
15103;DHT22;7652;53.584;9.998;2022-11-20T11:53:21;4.60;99.90
15103;DHT22;7652;53.584;9.998;2022-11-20T11:56:26;4.50;99.90
15103;DHT22;7652;53.584;9.998;2022-11-20T11:59:41;4.70;99.90
15103;DHT22;7652;53.584;9.998;2022-11-20T12:02:57;4.80;99.90
15103;DHT22;7652;53.584;9.998;2022-11-20T12:06:06;4.80;99.90
15103;DHT22;7652;53.584;9.998;2022-11-20T12:09:12;4.80;99.90
15103;DHT22;7652;53.584;9.998;2022-11-20T12:12:19;4.80;99.90
15103;DHT22;7652;53.584;9.998;2022-11-20T12:15:28;4.60;99.90
15103;DHT22;7652;53.584;9.998;2022-11-20T12:18:32;4.70;99.90
15103;DHT22;7652;53.584;9.998;2022-11-20T12:21:43;4.80;99.90
15103;DHT22;7652;53.584;9.998;2022-11-20T12:24:56;4.80;99.90
15103;DHT22;7652;53.584;9.998;2022-11-20T12:28:17;4.80;99.90
15103;DHT22;7652;53.584;9.998;2022-11-20T12:31:34;4.90;99.90
15103;DHT22;7652;53.584;9.998;2022-11-20T12:34:51;4.80;99.90
15103;DHT22;7652;53.584;9.998;2022-11-20T12:38:05;5.00;99.90
15103;DHT22;7652;53.584;9.998;2022-11-20T12:41:18;5.00;99.90
15103;DHT22;7652;53.584;9.998;2022-11-20T12:52:02;5.40;99.90
15103;DHT22;7652;53.584;9.998;2022-11-20T12:55:20;5.40;99.90
15103;DHT22;7652;53.584;9.998;2022-11-20T12:58:31;5.40;99.90
15103;DHT22;7652;53.584;9.998;2022-11-20T13:01:42;5.50;99.90
15103;DHT22;7652;53.584;9.998;2022-11-20T13:05:05;5.40;99.90
15103;DHT22;7652;53.584;9.998;2022-11-20T13:08:18;5.30;99.90
15103;DHT22;7652;53.584;9.998;2022-11-20T13:11:27;5.40;99.90
15103;DHT22;7652;53.584;9.998;2022-11-20T13:14:37;5.30;99.90
15103;DHT22;7652;53.584;9.998;2022-11-20T13:17:50;5.30;99.90
15103;DHT22;7652;53.584;9.998;2022-11-20T13:20:55;5.20;99.90
15103;DHT22;7652;53.584;9.998;2022-11-20T13:24:04;5.20;99.90
15103;DHT22;7652;53.584;9.998;2022-11-20T13:27:19;5.30;99.90
15103;DHT22;7652;53.584;9.998;2022-11-20T13:30:24;5.30;99.90
15103;DHT22;7652;53.584;9.998;2022-11-20T13:33:30;5.20;99.90
15103;DHT22;7652;53.584;9.998;2022-11-20T13:36:34;5.20;99.90
15103;DHT22;7652;53.584;9.998;2022-11-20T13:39:38;5.30;99.90
15103;DHT22;7652;53.584;9.998;2022-11-20T13:42:44;5.30;99.90
15103;DHT22;7652;53.584;9.998;2022-11-20T13:45:58;5.30;99.90
15103;DHT22;7652;53.584;9.998;2022-11-20T13:49:07;5.10;99.90
15103;DHT22;7652;53.584;9.998;2022-11-20T13:52:32;5.10;99.90
15103;DHT22;7652;53.584;9.998;2022-11-20T13:55:40;5.10;99.90
15103;DHT22;7652;53.584;9.998;2022-11-20T13:58:55;5.20;99.90
15103;DHT22;7652;53.584;9.998;2022-11-20T14:02:10;5.00;99.90
15103;DHT22;7652;53.584;9.998;2022-11-20T14:05:19;5.00;99.90
15103;DHT22;7652;53.584;9.998;2022-11-20T14:08:27;5.00;99.90
15103;DHT22;7652;53.584;9.998;2022-11-20T14:11:33;5.00;99.90
15103;DHT22;7652;53.584;9.998;2022-11-20T14:14:36;4.90;99.90
15103;DHT22;7652;53.584;9.998;2022-11-20T14:17:49;4.80;99.90
15103;DHT22;7652;53.584;9.998;2022-11-20T14:20:52;4.80;99.90
15103;DHT22;7652;53.584;9.998;2022-11-20T14:24:04;4.70;99.90
15103;DHT22;7652;53.584;9.998;2022-11-20T14:27:12;4.80;99.90
15103;DHT22;7652;53.584;9.998;2022-11-20T14:30:18;4.80;99.90
15103;DHT22;7652;53.584;9.998;2022-11-20T14:33:22;4.90;99.90
15103;DHT22;7652;53.584;9.998;2022-11-20T14:36:27;4.90;99.90
15103;DHT22;7652;53.584;9.998;2022-11-20T14:39:33;4.80;99.90
15103;DHT22;7652;53.584;9.998;2022-11-20T14:42:37;4.80;99.90
15103;DHT22;7652;53.584;9.998;2022-11-20T14:45:50;4.70;99.90
15103;DHT22;7652;53.584;9.998;2022-11-20T14:48:56;4.70;99.90
15103;DHT22;7652;53.584;9.998;2022-11-20T14:52:01;4.60;99.90
15103;DHT22;7652;53.584;9.998;2022-11-20T14:55:13;4.60;99.90
15103;DHT22;7652;53.584;9.998;2022-11-20T14:58:22;4.60;99.90
15103;DHT22;7652;53.584;9.998;2022-11-20T15:01:27;4.50;99.90
15103;DHT22;7652;53.584;9.998;2022-11-20T15:04:30;4.50;99.90
15103;DHT22;7652;53.584;9.998;2022-11-20T15:07:35;4.50;99.90
15103;DHT22;7652;53.584;9.998;2022-11-20T15:10:45;4.40;99.90
15103;DHT22;7652;53.584;9.998;2022-11-20T15:13:48;4.20;99.90
15103;DHT22;7652;53.584;9.998;2022-11-20T15:16:52;4.10;99.90
15103;DHT22;7652;53.584;9.998;2022-11-20T15:19:55;4.00;99.90
15103;DHT22;7652;53.584;9.998;2022-11-20T15:22:58;4.00;99.90
15103;DHT22;7652;53.584;9.998;2022-11-20T15:26:04;3.90;99.90
15103;DHT22;7652;53.584;9.998;2022-11-20T15:29:08;3.90;99.90
15103;DHT22;7652;53.584;9.998;2022-11-20T15:32:12;4.00;99.90
15103;DHT22;7652;53.584;9.998;2022-11-20T15:35:15;4.10;99.90
15103;DHT22;7652;53.584;9.998;2022-11-20T15:38:18;4.10;99.90
15103;DHT22;7652;53.584;9.998;2022-11-20T15:41:22;4.20;99.90
15103;DHT22;7652;53.584;9.998;2022-11-20T15:44:25;4.10;99.90
15103;DHT22;7652;53.584;9.998;2022-11-20T15:47:31;4.10;99.90
15103;DHT22;7652;53.584;9.998;2022-11-20T15:50:38;4.20;99.90
15103;DHT22;7652;53.584;9.998;2022-11-20T15:53:41;4.20;99.90
15103;DHT22;7652;53.584;9.998;2022-11-20T15:56:46;4.30;99.90
15103;DHT22;7652;53.584;9.998;2022-11-20T15:59:49;4.30;99.90
15103;DHT22;7652;53.584;9.998;2022-11-20T16:02:52;4.40;99.90
15103;DHT22;7652;53.584;9.998;2022-11-20T16:05:55;4.40;99.90
15103;DHT22;7652;53.584;9.998;2022-11-20T16:08:58;4.40;99.90
15103;DHT22;7652;53.584;9.998;2022-11-20T16:12:03;4.40;99.90
15103;DHT22;7652;53.584;9.998;2022-11-20T16:15:08;4.40;99.90
15103;DHT22;7652;53.584;9.998;2022-11-20T16:18:28;4.50;99.90
15103;DHT22;7652;53.584;9.998;2022-11-20T16:21:31;4.50;99.90
15103;DHT22;7652;53.584;9.998;2022-11-20T16:24:34;4.50;99.90
15103;DHT22;7652;53.584;9.998;2022-11-20T16:27:39;4.50;99.90
15103;DHT22;7652;53.584;9.998;2022-11-20T16:30:42;4.50;99.90
15103;DHT22;7652;53.584;9.998;2022-11-20T16:33:49;4.40;99.90
15103;DHT22;7652;53.584;9.998;2022-11-20T16:36:52;4.40;99.90
15103;DHT22;7652;53.584;9.998;2022-11-20T16:39:55;4.40;99.90
15103;DHT22;7652;53.584;9.998;2022-11-20T16:43:07;4.40;99.90
15103;DHT22;7652;53.584;9.998;2022-11-20T16:46:11;4.40;99.90
15103;DHT22;7652;53.584;9.998;2022-11-20T16:49:14;4.50;99.90
15103;DHT22;7652;53.584;9.998;2022-11-20T16:52:17;4.40;99.90
15103;DHT22;7652;53.584;9.998;2022-11-20T16:55:20;4.40;99.90
15103;DHT22;7652;53.584;9.998;2022-11-20T16:58:25;4.40;99.90
15103;DHT22;7652;53.584;9.998;2022-11-20T17:01:28;4.20;99.90
15103;DHT22;7652;53.584;9.998;2022-11-20T17:04:32;4.20;99.90
15103;DHT22;7652;53.584;9.998;2022-11-20T17:07:35;4.20;99.90
15103;DHT22;7652;53.584;9.998;2022-11-20T17:10:39;4.20;99.90
15103;DHT22;7652;53.584;9.998;2022-11-20T17:13:45;4.20;99.90
15103;DHT22;7652;53.584;9.998;2022-11-20T17:16:48;4.30;99.90
15103;DHT22;7652;53.584;9.998;2022-11-20T17:19:51;4.30;99.90
15103;DHT22;7652;53.584;9.998;2022-11-20T17:22:55;4.40;99.90
15103;DHT22;7652;53.584;9.998;2022-11-20T17:26:02;4.40;99.90
15103;DHT22;7652;53.584;9.998;2022-11-20T17:29:09;4.40;99.90
15103;DHT22;7652;53.584;9.998;2022-11-20T17:32:12;4.40;99.90
15103;DHT22;7652;53.584;9.998;2022-11-20T17:35:15;4.50;99.90
15103;DHT22;7652;53.584;9.998;2022-11-20T17:38:18;4.40;99.90
15103;DHT22;7652;53.584;9.998;2022-11-20T17:41:23;4.30;99.90
15103;DHT22;7652;53.584;9.998;2022-11-20T17:44:28;4.30;99.90
15103;DHT22;7652;53.584;9.998;2022-11-20T17:47:33;4.20;99.90
15103;DHT22;7652;53.584;9.998;2022-11-20T17:50:36;4.20;99.90
15103;DHT22;7652;53.584;9.998;2022-11-20T17:53:40;4.30;99.90
15103;DHT22;7652;53.584;9.998;2022-11-20T17:56:44;4.20;99.90
15103;DHT22;7652;53.584;9.998;2022-11-20T18:00:07;4.30;99.90
15103;DHT22;7652;53.584;9.998;2022-11-20T18:03:12;4.10;99.90
15103;DHT22;7652;53.584;9.998;2022-11-20T18:06:17;4.00;99.90
15103;DHT22;7652;53.584;9.998;2022-11-20T18:09:20;4.00;99.90
15103;DHT22;7652;53.584;9.998;2022-11-20T18:12:23;4.00;99.90
15103;DHT22;7652;53.584;9.998;2022-11-20T18:15:27;4.00;99.90
15103;DHT22;7652;53.584;9.998;2022-11-20T18:18:30;4.00;99.90
15103;DHT22;7652;53.584;9.998;2022-11-20T18:21:33;4.00;99.90
15103;DHT22;7652;53.584;9.998;2022-11-20T18:24:37;3.90;99.90
15103;DHT22;7652;53.584;9.998;2022-11-20T18:27:40;4.00;99.90
15103;DHT22;7652;53.584;9.998;2022-11-20T18:30:44;3.90;99.90
15103;DHT22;7652;53.584;9.998;2022-11-20T18:33:47;4.00;99.90
15103;DHT22;7652;53.584;9.998;2022-11-20T18:36:51;4.00;99.90
15103;DHT22;7652;53.584;9.998;2022-11-20T18:39:54;4.10;99.90
15103;DHT22;7652;53.584;9.998;2022-11-20T18:42:57;4.10;99.90
15103;DHT22;7652;53.584;9.998;2022-11-20T18:46:19;4.10;99.90
15103;DHT22;7652;53.584;9.998;2022-11-20T18:49:22;4.20;99.90
15103;DHT22;7652;53.584;9.998;2022-11-20T18:52:27;4.10;99.90
15103;DHT22;7652;53.584;9.998;2022-11-20T18:55:30;4.20;99.90
15103;DHT22;7652;53.584;9.998;2022-11-20T18:58:33;4.40;99.90
15103;DHT22;7652;53.584;9.998;2022-11-20T19:01:38;4.40;99.90
15103;DHT22;7652;53.584;9.998;2022-11-20T19:04:41;4.20;99.90
15103;DHT22;7652;53.584;9.998;2022-11-20T19:07:44;4.10;99.90
15103;DHT22;7652;53.584;9.998;2022-11-20T19:10:48;4.00;99.90
15103;DHT22;7652;53.584;9.998;2022-11-20T19:13:51;4.00;99.90
15103;DHT22;7652;53.584;9.998;2022-11-20T19:16:55;3.80;99.90
15103;DHT22;7652;53.584;9.998;2022-11-20T19:19:58;3.80;99.90
15103;DHT22;7652;53.584;9.998;2022-11-20T19:23:01;3.80;99.90
15103;DHT22;7652;53.584;9.998;2022-11-20T19:26:05;3.80;99.90
15103;DHT22;7652;53.584;9.998;2022-11-20T19:29:12;3.70;99.90
15103;DHT22;7652;53.584;9.998;2022-11-20T19:32:16;3.60;99.90
15103;DHT22;7652;53.584;9.998;2022-11-20T19:35:19;3.60;99.90
15103;DHT22;7652;53.584;9.998;2022-11-20T19:38:22;3.70;99.90
15103;DHT22;7652;53.584;9.998;2022-11-20T19:41:27;3.70;99.90
15103;DHT22;7652;53.584;9.998;2022-11-20T19:44:31;3.70;99.90
15103;DHT22;7652;53.584;9.998;2022-11-20T19:47:35;3.70;99.90
15103;DHT22;7652;53.584;9.998;2022-11-20T19:51:07;3.70;99.90
15103;DHT22;7652;53.584;9.998;2022-11-20T19:54:10;3.70;99.90
15103;DHT22;7652;53.584;9.998;2022-11-20T19:57:13;3.70;99.90
15103;DHT22;7652;53.584;9.998;2022-11-20T20:00:17;3.70;99.90
15103;DHT22;7652;53.584;9.998;2022-11-20T20:03:33;3.70;99.90
15103;DHT22;7652;53.584;9.998;2022-11-20T20:06:37;3.60;99.90
15103;DHT22;7652;53.584;9.998;2022-11-20T20:09:40;3.50;99.90
15103;DHT22;7652;53.584;9.998;2022-11-20T20:12:44;3.50;99.90
15103;DHT22;7652;53.584;9.998;2022-11-20T20:15:47;3.40;99.90
15103;DHT22;7652;53.584;9.998;2022-11-20T20:18:55;3.40;99.90
15103;DHT22;7652;53.584;9.998;2022-11-20T20:21:58;3.40;99.90